sensor_id;sensor_type;location;lat;lon;timestamp;P1;durP1;ratioP1;P2;durP2;ratioP2
23400;SDS011;11873;49.300;8.920;2023-07-24T00:02:08;4.27;;;3.23;;
23400;SDS011;11873;49.300;8.920;2023-07-24T00:07:08;4.73;;;3.40;;
23400;SDS011;11873;49.300;8.920;2023-07-24T00:12:08;4.63;;;3.20;;
23400;SDS011;11873;49.300;8.920;2023-07-24T00:17:08;4.57;;;3.27;;
23400;SDS011;11873;49.300;8.920;2023-07-24T00:22:08;4.47;;;3.17;;
23400;SDS011;11873;49.300;8.920;2023-07-24T00:27:09;3.80;;;3.30;;
23400;SDS011;11873;49.300;8.920;2023-07-24T00:32:09;3.43;;;3.13;;
23400;SDS011;11873;49.300;8.920;2023-07-24T00:37:09;5.30;;;3.50;;
23400;SDS011;11873;49.300;8.920;2023-07-24T00:42:09;4.70;;;3.10;;
23400;SDS011;11873;49.300;8.920;2023-07-24T00:47:09;3.23;;;2.90;;
23400;SDS011;11873;49.300;8.920;2023-07-24T00:52:10;3.57;;;3.23;;
23400;SDS011;11873;49.300;8.920;2023-07-24T00:57:11;3.73;;;3.10;;
23400;SDS011;11873;49.300;8.920;2023-07-24T01:02:11;4.53;;;3.33;;
23400;SDS011;11873;49.300;8.920;2023-07-24T01:07:11;5.60;;;3.50;;
23400;SDS011;11873;49.300;8.920;2023-07-24T01:17:14;5.17;;;3.40;;
23400;SDS011;11873;49.300;8.920;2023-07-24T01:27:30;5.23;;;3.20;;
23400;SDS011;11873;49.300;8.920;2023-07-24T01:32:30;3.60;;;3.20;;
23400;SDS011;11873;49.300;8.920;2023-07-24T01:37:30;6.30;;;3.03;;
23400;SDS011;11873;49.300;8.920;2023-07-24T01:42:31;6.07;;;3.30;;
23400;SDS011;11873;49.300;8.920;2023-07-24T01:47:31;4.20;;;3.50;;
23400;SDS011;11873;49.300;8.920;2023-07-24T01:52:32;4.37;;;3.23;;
23400;SDS011;11873;49.300;8.920;2023-07-24T01:57:32;6.97;;;4.10;;
23400;SDS011;11873;49.300;8.920;2023-07-24T02:02:32;3.57;;;3.23;;
23400;SDS011;11873;49.300;8.920;2023-07-24T02:07:32;3.97;;;3.40;;
23400;SDS011;11873;49.300;8.920;2023-07-24T02:12:32;4.70;;;3.30;;
23400;SDS011;11873;49.300;8.920;2023-07-24T02:17:33;4.83;;;3.50;;
23400;SDS011;11873;49.300;8.920;2023-07-24T02:22:33;4.77;;;3.70;;
23400;SDS011;11873;49.300;8.920;2023-07-24T02:27:33;5.20;;;3.40;;
23400;SDS011;11873;49.300;8.920;2023-07-24T02:32:33;4.83;;;3.43;;
23400;SDS011;11873;49.300;8.920;2023-07-24T02:37:33;4.47;;;3.53;;
23400;SDS011;11873;49.300;8.920;2023-07-24T02:42:33;5.73;;;3.33;;
23400;SDS011;11873;49.300;8.920;2023-07-24T02:47:34;5.53;;;4.03;;
23400;SDS011;11873;49.300;8.920;2023-07-24T02:52:34;6.13;;;3.70;;
23400;SDS011;11873;49.300;8.920;2023-07-24T02:57:34;5.57;;;3.10;;
23400;SDS011;11873;49.300;8.920;2023-07-24T03:02:34;4.30;;;3.70;;
23400;SDS011;11873;49.300;8.920;2023-07-24T03:07:34;5.00;;;4.03;;
23400;SDS011;11873;49.300;8.920;2023-07-24T03:12:34;4.83;;;3.70;;
23400;SDS011;11873;49.300;8.920;2023-07-24T03:17:35;6.07;;;3.73;;
23400;SDS011;11873;49.300;8.920;2023-07-24T03:22:35;7.30;;;4.70;;
23400;SDS011;11873;49.300;8.920;2023-07-24T03:27:35;5.67;;;3.53;;
23400;SDS011;11873;49.300;8.920;2023-07-24T03:32:36;6.50;;;3.73;;
23400;SDS011;11873;49.300;8.920;2023-07-24T03:37:36;7.30;;;4.00;;
23400;SDS011;11873;49.300;8.920;2023-07-24T03:42:36;5.80;;;4.37;;
23400;SDS011;11873;49.300;8.920;2023-07-24T03:47:37;5.70;;;3.97;;
23400;SDS011;11873;49.300;8.920;2023-07-24T03:52:37;4.17;;;3.77;;
23400;SDS011;11873;49.300;8.920;2023-07-24T03:57:37;4.67;;;4.10;;
23400;SDS011;11873;49.300;8.920;2023-07-24T04:02:37;5.00;;;4.00;;
23400;SDS011;11873;49.300;8.920;2023-07-24T04:07:38;5.80;;;4.30;;
23400;SDS011;11873;49.300;8.920;2023-07-24T04:12:38;6.07;;;4.37;;
23400;SDS011;11873;49.300;8.920;2023-07-24T04:17:38;8.13;;;4.37;;
23400;SDS011;11873;49.300;8.920;2023-07-24T04:22:38;5.70;;;4.40;;
23400;SDS011;11873;49.300;8.920;2023-07-24T04:27:38;6.10;;;4.23;;
23400;SDS011;11873;49.300;8.920;2023-07-24T04:32:38;5.27;;;4.23;;
23400;SDS011;11873;49.300;8.920;2023-07-24T04:37:39;7.97;;;4.30;;
23400;SDS011;11873;49.300;8.920;2023-07-24T04:42:39;6.97;;;4.73;;
23400;SDS011;11873;49.300;8.920;2023-07-24T04:47:39;5.33;;;4.23;;
23400;SDS011;11873;49.300;8.920;2023-07-24T04:52:39;7.20;;;4.60;;
23400;SDS011;11873;49.300;8.920;2023-07-24T04:57:39;6.97;;;4.27;;
23400;SDS011;11873;49.300;8.920;2023-07-24T05:02:39;5.73;;;4.37;;
23400;SDS011;11873;49.300;8.920;2023-07-24T05:07:40;6.27;;;4.77;;
23400;SDS011;11873;49.300;8.920;2023-07-24T05:12:40;5.00;;;3.87;;
23400;SDS011;11873;49.300;8.920;2023-07-24T05:17:41;6.20;;;4.00;;
23400;SDS011;11873;49.300;8.920;2023-07-24T05:22:41;7.10;;;4.40;;
23400;SDS011;11873;49.300;8.920;2023-07-24T05:27:41;6.60;;;4.27;;
23400;SDS011;11873;49.300;8.920;2023-07-24T05:32:41;7.10;;;5.20;;
23400;SDS011;11873;49.300;8.920;2023-07-24T05:37:41;6.13;;;4.83;;
23400;SDS011;11873;49.300;8.920;2023-07-24T05:42:41;7.03;;;4.37;;
23400;SDS011;11873;49.300;8.920;2023-07-24T05:47:42;6.27;;;4.67;;
23400;SDS011;11873;49.300;8.920;2023-07-24T05:52:42;7.20;;;4.30;;
23400;SDS011;11873;49.300;8.920;2023-07-24T05:57:42;7.70;;;4.67;;
23400;SDS011;11873;49.300;8.920;2023-07-24T06:02:42;4.77;;;3.90;;
23400;SDS011;11873;49.300;8.920;2023-07-24T06:07:42;5.07;;;4.33;;
23400;SDS011;11873;49.300;8.920;2023-07-24T06:12:43;5.77;;;4.03;;
23400;SDS011;11873;49.300;8.920;2023-07-24T06:17:43;5.43;;;3.87;;
23400;SDS011;11873;49.300;8.920;2023-07-24T06:22:43;5.80;;;4.10;;
23400;SDS011;11873;49.300;8.920;2023-07-24T06:27:43;4.70;;;3.93;;
23400;SDS011;11873;49.300;8.920;2023-07-24T06:32:43;5.47;;;4.23;;
23400;SDS011;11873;49.300;8.920;2023-07-24T06:37:43;7.40;;;5.00;;
23400;SDS011;11873;49.300;8.920;2023-07-24T06:42:44;6.10;;;3.93;;
23400;SDS011;11873;49.300;8.920;2023-07-24T06:47:45;6.27;;;4.23;;
23400;SDS011;11873;49.300;8.920;2023-07-24T06:52:45;5.60;;;4.47;;
23400;SDS011;11873;49.300;8.920;2023-07-24T06:57:45;8.27;;;4.57;;
23400;SDS011;11873;49.300;8.920;2023-07-24T07:02:45;6.23;;;4.70;;
23400;SDS011;11873;49.300;8.920;2023-07-24T07:07:45;6.30;;;4.23;;
23400;SDS011;11873;49.300;8.920;2023-07-24T07:12:46;7.17;;;4.77;;
23400;SDS011;11873;49.300;8.920;2023-07-24T07:17:46;5.70;;;4.73;;
23400;SDS011;11873;49.300;8.920;2023-07-24T07:22:46;5.93;;;3.87;;
23400;SDS011;11873;49.300;8.920;2023-07-24T07:27:46;8.17;;;4.53;;
23400;SDS011;11873;49.300;8.920;2023-07-24T07:32:46;6.50;;;4.70;;
23400;SDS011;11873;49.300;8.920;2023-07-24T07:37:46;8.27;;;5.20;;
23400;SDS011;11873;49.300;8.920;2023-07-24T07:42:47;6.77;;;4.37;;
23400;SDS011;11873;49.300;8.920;2023-07-24T07:47:47;7.70;;;4.70;;
23400;SDS011;11873;49.300;8.920;2023-07-24T07:52:50;6.17;;;4.87;;
23400;SDS011;11873;49.300;8.920;2023-07-24T07:57:51;6.57;;;4.93;;
23400;SDS011;11873;49.300;8.920;2023-07-24T08:02:51;5.37;;;4.37;;
23400;SDS011;11873;49.300;8.920;2023-07-24T08:07:51;6.70;;;4.67;;
23400;SDS011;11873;49.300;8.920;2023-07-24T08:12:51;5.90;;;4.43;;
23400;SDS011;11873;49.300;8.920;2023-07-24T08:17:52;7.47;;;5.57;;
23400;SDS011;11873;49.300;8.920;2023-07-24T08:22:52;7.30;;;5.27;;
23400;SDS011;11873;49.300;8.920;2023-07-24T08:27:52;7.13;;;5.07;;
23400;SDS011;11873;49.300;8.920;2023-07-24T08:32:52;7.27;;;5.13;;
23400;SDS011;11873;49.300;8.920;2023-07-24T08:37:52;8.87;;;5.50;;
23400;SDS011;11873;49.300;8.920;2023-07-24T08:42:52;8.33;;;4.50;;
23400;SDS011;11873;49.300;8.920;2023-07-24T08:47:54;8.77;;;5.53;;
23400;SDS011;11873;49.300;8.920;2023-07-24T08:52:55;9.70;;;4.57;;
23400;SDS011;11873;49.300;8.920;2023-07-24T08:57:56;10.50;;;5.13;;
23400;SDS011;11873;49.300;8.920;2023-07-24T09:02:57;6.13;;;4.70;;
23400;SDS011;11873;49.300;8.920;2023-07-24T09:07:57;6.80;;;4.57;;
23400;SDS011;11873;49.300;8.920;2023-07-24T09:12:57;6.70;;;5.27;;
23400;SDS011;11873;49.300;8.920;2023-07-24T09:17:57;5.97;;;4.53;;
23400;SDS011;11873;49.300;8.920;2023-07-24T09:22:58;5.37;;;4.33;;
23400;SDS011;11873;49.300;8.920;2023-07-24T09:27:58;5.33;;;4.40;;
23400;SDS011;11873;49.300;8.920;2023-07-24T09:32:58;6.60;;;4.97;;
23400;SDS011;11873;49.300;8.920;2023-07-24T09:38:08;6.40;;;4.63;;
23400;SDS011;11873;49.300;8.920;2023-07-24T09:48:19;7.07;;;5.43;;
23400;SDS011;11873;49.300;8.920;2023-07-24T09:58:39;5.67;;;4.57;;
23400;SDS011;11873;49.300;8.920;2023-07-24T10:03:40;5.20;;;4.10;;
23400;SDS011;11873;49.300;8.920;2023-07-24T10:08:40;6.17;;;4.53;;
23400;SDS011;11873;49.300;8.920;2023-07-24T10:13:41;5.10;;;4.10;;
23400;SDS011;11873;49.300;8.920;2023-07-24T10:18:45;6.27;;;4.53;;
23400;SDS011;11873;49.300;8.920;2023-07-24T10:23:45;6.70;;;4.80;;
23400;SDS011;11873;49.300;8.920;2023-07-24T10:28:46;5.13;;;3.87;;
23400;SDS011;11873;49.300;8.920;2023-07-24T10:33:47;7.13;;;4.30;;
23400;SDS011;11873;49.300;8.920;2023-07-24T10:38:53;5.43;;;3.90;;
23400;SDS011;11873;49.300;8.920;2023-07-24T10:43:58;8.47;;;5.43;;
23400;SDS011;11873;49.300;8.920;2023-07-24T10:49:00;8.27;;;4.43;;
23400;SDS011;11873;49.300;8.920;2023-07-24T10:54:02;7.07;;;5.10;;
23400;SDS011;11873;49.300;8.920;2023-07-24T10:59:05;6.53;;;4.63;;
23400;SDS011;11873;49.300;8.920;2023-07-24T11:04:05;9.17;;;5.53;;
23400;SDS011;11873;49.300;8.920;2023-07-24T11:09:05;6.27;;;4.90;;
23400;SDS011;11873;49.300;8.920;2023-07-24T11:14:13;10.03;;;5.07;;
23400;SDS011;11873;49.300;8.920;2023-07-24T11:19:13;7.67;;;4.90;;
23400;SDS011;11873;49.300;8.920;2023-07-24T11:24:21;8.47;;;4.80;;
23400;SDS011;11873;49.300;8.920;2023-07-24T11:29:22;6.80;;;5.53;;
23400;SDS011;11873;49.300;8.920;2023-07-24T11:34:23;7.10;;;4.70;;
23400;SDS011;11873;49.300;8.920;2023-07-24T11:39:24;7.47;;;5.20;;
23400;SDS011;11873;49.300;8.920;2023-07-24T11:44:25;5.90;;;5.03;;
23400;SDS011;11873;49.300;8.920;2023-07-24T11:49:25;6.87;;;4.50;;
23400;SDS011;11873;49.300;8.920;2023-07-24T11:54:25;7.13;;;5.63;;
23400;SDS011;11873;49.300;8.920;2023-07-24T11:59:26;6.37;;;4.37;;
23400;SDS011;11873;49.300;8.920;2023-07-24T12:04:30;6.60;;;4.53;;
23400;SDS011;11873;49.300;8.920;2023-07-24T12:09:30;6.63;;;4.50;;
23400;SDS011;11873;49.300;8.920;2023-07-24T12:14:30;5.73;;;4.00;;
23400;SDS011;11873;49.300;8.920;2023-07-24T12:19:30;4.83;;;3.87;;
23400;SDS011;11873;49.300;8.920;2023-07-24T12:24:30;4.73;;;3.80;;
23400;SDS011;11873;49.300;8.920;2023-07-24T12:29:31;5.47;;;4.27;;
23400;SDS011;11873;49.300;8.920;2023-07-24T12:34:31;5.37;;;3.70;;
23400;SDS011;11873;49.300;8.920;2023-07-24T12:39:31;5.57;;;4.17;;
23400;SDS011;11873;49.300;8.920;2023-07-24T12:44:31;7.00;;;5.10;;
23400;SDS011;11873;49.300;8.920;2023-07-24T12:49:32;8.13;;;5.63;;
23400;SDS011;11873;49.300;8.920;2023-07-24T12:54:32;7.40;;;4.60;;
23400;SDS011;11873;49.300;8.920;2023-07-24T12:59:32;6.80;;;4.53;;
23400;SDS011;11873;49.300;8.920;2023-07-24T13:04:32;6.90;;;5.50;;
23400;SDS011;11873;49.300;8.920;2023-07-24T13:09:32;7.03;;;4.80;;
23400;SDS011;11873;49.300;8.920;2023-07-24T13:14:33;6.77;;;4.77;;
23400;SDS011;11873;49.300;8.920;2023-07-24T13:19:33;7.20;;;5.73;;
23400;SDS011;11873;49.300;8.920;2023-07-24T13:24:33;7.73;;;5.07;;
23400;SDS011;11873;49.300;8.920;2023-07-24T13:29:33;6.87;;;4.73;;
23400;SDS011;11873;49.300;8.920;2023-07-24T13:34:33;5.60;;;4.60;;
23400;SDS011;11873;49.300;8.920;2023-07-24T13:39:34;7.50;;;4.07;;
23400;SDS011;11873;49.300;8.920;2023-07-24T13:44:34;6.43;;;4.90;;
23400;SDS011;11873;49.300;8.920;2023-07-24T13:49:34;7.03;;;5.57;;
23400;SDS011;11873;49.300;8.920;2023-07-24T13:54:34;6.03;;;4.30;;
23400;SDS011;11873;49.300;8.920;2023-07-24T13:59:35;6.37;;;5.03;;
23400;SDS011;11873;49.300;8.920;2023-07-24T14:04:35;4.90;;;4.20;;
23400;SDS011;11873;49.300;8.920;2023-07-24T14:09:35;5.20;;;4.57;;
23400;SDS011;11873;49.300;8.920;2023-07-24T14:14:35;5.27;;;4.37;;
23400;SDS011;11873;49.300;8.920;2023-07-24T14:19:36;5.87;;;4.07;;
23400;SDS011;11873;49.300;8.920;2023-07-24T14:24:36;6.67;;;4.53;;
23400;SDS011;11873;49.300;8.920;2023-07-24T14:29:36;4.77;;;4.13;;
23400;SDS011;11873;49.300;8.920;2023-07-24T14:34:36;6.03;;;3.77;;
23400;SDS011;11873;49.300;8.920;2023-07-24T14:39:36;5.23;;;4.07;;
23400;SDS011;11873;49.300;8.920;2023-07-24T14:44:39;4.33;;;3.80;;
23400;SDS011;11873;49.300;8.920;2023-07-24T14:49:39;5.40;;;3.87;;
23400;SDS011;11873;49.300;8.920;2023-07-24T14:54:39;6.57;;;4.50;;
23400;SDS011;11873;49.300;8.920;2023-07-24T14:59:40;4.20;;;3.57;;
23400;SDS011;11873;49.300;8.920;2023-07-24T15:04:40;6.37;;;4.27;;
23400;SDS011;11873;49.300;8.920;2023-07-24T15:09:41;5.27;;;3.20;;
23400;SDS011;11873;49.300;8.920;2023-07-24T15:14:41;6.67;;;5.03;;
23400;SDS011;11873;49.300;8.920;2023-07-24T15:19:41;0.30;;;0.30;;
23400;SDS011;11873;49.300;8.920;2023-07-24T15:24:41;0.50;;;0.50;;
23400;SDS011;11873;49.300;8.920;2023-07-24T15:29:42;0.30;;;0.30;;
23400;SDS011;11873;49.300;8.920;2023-07-24T15:34:42;0.30;;;0.30;;
23400;SDS011;11873;49.300;8.920;2023-07-24T15:39:42;0.30;;;0.30;;
23400;SDS011;11873;49.300;8.920;2023-07-24T15:44:42;0.40;;;0.40;;
23400;SDS011;11873;49.300;8.920;2023-07-24T15:49:42;0.30;;;0.30;;
23400;SDS011;11873;49.300;8.920;2023-07-24T15:54:43;0.30;;;0.30;;
23400;SDS011;11873;49.300;8.920;2023-07-24T15:59:43;0.40;;;0.40;;
23400;SDS011;11873;49.300;8.920;2023-07-24T16:04:43;0.30;;;0.30;;
23400;SDS011;11873;49.300;8.920;2023-07-24T16:09:43;0.50;;;0.50;;
23400;SDS011;11873;49.300;8.920;2023-07-24T16:14:43;0.40;;;0.40;;
23400;SDS011;11873;49.300;8.920;2023-07-24T16:19:44;0.30;;;0.30;;
23400;SDS011;11873;49.300;8.920;2023-07-24T16:24:44;0.30;;;0.30;;
23400;SDS011;11873;49.300;8.920;2023-07-24T16:29:44;4.70;;;2.97;;
23400;SDS011;11873;49.300;8.920;2023-07-24T16:34:44;7.93;;;3.80;;
23400;SDS011;11873;49.300;8.920;2023-07-24T16:39:44;6.07;;;4.13;;
23400;SDS011;11873;49.300;8.920;2023-07-24T16:44:44;3.60;;;2.87;;
23400;SDS011;11873;49.300;8.920;2023-07-24T16:49:45;2.93;;;2.47;;
23400;SDS011;11873;49.300;8.920;2023-07-24T16:54:45;5.03;;;2.80;;
23400;SDS011;11873;49.300;8.920;2023-07-24T16:59:45;3.50;;;2.83;;
23400;SDS011;11873;49.300;8.920;2023-07-24T17:04:45;2.67;;;2.30;;
23400;SDS011;11873;49.300;8.920;2023-07-24T17:09:45;4.13;;;2.30;;
23400;SDS011;11873;49.300;8.920;2023-07-24T17:14:46;2.90;;;2.63;;
23400;SDS011;11873;49.300;8.920;2023-07-24T17:19:46;2.27;;;2.00;;
23400;SDS011;11873;49.300;8.920;2023-07-24T17:24:46;2.70;;;2.07;;
23400;SDS011;11873;49.300;8.920;2023-07-24T17:29:46;4.20;;;2.60;;
23400;SDS011;11873;49.300;8.920;2023-07-24T17:34:46;2.27;;;1.73;;
23400;SDS011;11873;49.300;8.920;2023-07-24T17:39:47;2.37;;;2.17;;
23400;SDS011;11873;49.300;8.920;2023-07-24T17:44:47;2.30;;;2.10;;
23400;SDS011;11873;49.300;8.920;2023-07-24T17:49:47;2.00;;;1.90;;
23400;SDS011;11873;49.300;8.920;2023-07-24T17:54:47;2.10;;;1.70;;
23400;SDS011;11873;49.300;8.920;2023-07-24T17:59:47;1.80;;;1.67;;
23400;SDS011;11873;49.300;8.920;2023-07-24T18:04:47;1.70;;;1.60;;
23400;SDS011;11873;49.300;8.920;2023-07-24T18:09:48;1.47;;;1.37;;
23400;SDS011;11873;49.300;8.920;2023-07-24T18:14:48;2.07;;;1.60;;
23400;SDS011;11873;49.300;8.920;2023-07-24T18:19:48;1.70;;;1.47;;
23400;SDS011;11873;49.300;8.920;2023-07-24T18:24:48;2.33;;;1.47;;
23400;SDS011;11873;49.300;8.920;2023-07-24T18:29:48;1.67;;;1.57;;
23400;SDS011;11873;49.300;8.920;2023-07-24T18:34:48;1.33;;;1.10;;
23400;SDS011;11873;49.300;8.920;2023-07-24T18:39:49;1.70;;;1.60;;
23400;SDS011;11873;49.300;8.920;2023-07-24T18:44:49;1.40;;;1.30;;
23400;SDS011;11873;49.300;8.920;2023-07-24T18:49:49;1.47;;;1.37;;
23400;SDS011;11873;49.300;8.920;2023-07-24T18:54:49;1.70;;;1.30;;
23400;SDS011;11873;49.300;8.920;2023-07-24T18:59:49;1.90;;;1.43;;
23400;SDS011;11873;49.300;8.920;2023-07-24T19:04:49;1.07;;;1.07;;
23400;SDS011;11873;49.300;8.920;2023-07-24T19:09:50;2.30;;;1.30;;
23400;SDS011;11873;49.300;8.920;2023-07-24T19:14:50;2.17;;;1.50;;
23400;SDS011;11873;49.300;8.920;2023-07-24T19:19:50;1.07;;;1.07;;
23400;SDS011;11873;49.300;8.920;2023-07-24T19:24:50;1.37;;;1.20;;
23400;SDS011;11873;49.300;8.920;2023-07-24T19:29:50;1.30;;;1.20;;
23400;SDS011;11873;49.300;8.920;2023-07-24T19:34:51;2.30;;;1.50;;
23400;SDS011;11873;49.300;8.920;2023-07-24T19:39:51;2.30;;;1.30;;
23400;SDS011;11873;49.300;8.920;2023-07-24T19:44:52;1.37;;;1.27;;
23400;SDS011;11873;49.300;8.920;2023-07-24T19:49:52;1.20;;;1.10;;
23400;SDS011;11873;49.300;8.920;2023-07-24T19:54:52;1.40;;;1.30;;
23400;SDS011;11873;49.300;8.920;2023-07-24T19:59:52;1.30;;;1.20;;
23400;SDS011;11873;49.300;8.920;2023-07-24T20:04:52;1.47;;;1.37;;
23400;SDS011;11873;49.300;8.920;2023-07-24T20:09:53;1.73;;;1.40;;
23400;SDS011;11873;49.300;8.920;2023-07-24T20:14:53;1.60;;;1.50;;
23400;SDS011;11873;49.300;8.920;2023-07-24T20:19:53;1.93;;;1.73;;
23400;SDS011;11873;49.300;8.920;2023-07-24T20:24:53;1.50;;;1.40;;
23400;SDS011;11873;49.300;8.920;2023-07-24T20:29:53;2.23;;;1.20;;
23400;SDS011;11873;49.300;8.920;2023-07-24T20:34:53;1.67;;;1.57;;
23400;SDS011;11873;49.300;8.920;2023-07-24T20:39:54;1.57;;;1.47;;
23400;SDS011;11873;49.300;8.920;2023-07-24T20:44:54;1.67;;;1.57;;
23400;SDS011;11873;49.300;8.920;2023-07-24T20:49:54;1.63;;;1.53;;
23400;SDS011;11873;49.300;8.920;2023-07-24T20:54:54;2.60;;;1.73;;
23400;SDS011;11873;49.300;8.920;2023-07-24T20:59:54;1.50;;;1.40;;
23400;SDS011;11873;49.300;8.920;2023-07-24T21:04:55;2.97;;;1.80;;
23400;SDS011;11873;49.300;8.920;2023-07-24T21:09:55;2.20;;;2.00;;
23400;SDS011;11873;49.300;8.920;2023-07-24T21:14:55;1.70;;;1.60;;
23400;SDS011;11873;49.300;8.920;2023-07-24T21:19:55;1.63;;;1.47;;
23400;SDS011;11873;49.300;8.920;2023-07-24T21:24:55;2.63;;;1.83;;
23400;SDS011;11873;49.300;8.920;2023-07-24T21:29:56;1.80;;;1.40;;
23400;SDS011;11873;49.300;8.920;2023-07-24T21:34:56;1.60;;;1.50;;
23400;SDS011;11873;49.300;8.920;2023-07-24T21:39:56;1.40;;;1.30;;
23400;SDS011;11873;49.300;8.920;2023-07-24T21:44:56;1.80;;;1.50;;
23400;SDS011;11873;49.300;8.920;2023-07-24T21:49:56;1.40;;;1.30;;
23400;SDS011;11873;49.300;8.920;2023-07-24T21:54:57;1.90;;;1.30;;
23400;SDS011;11873;49.300;8.920;2023-07-24T21:59:57;2.30;;;1.43;;
23400;SDS011;11873;49.300;8.920;2023-07-24T22:04:57;1.73;;;1.63;;
23400;SDS011;11873;49.300;8.920;2023-07-24T22:09:57;1.83;;;1.50;;
23400;SDS011;11873;49.300;8.920;2023-07-24T22:14:57;1.90;;;1.70;;
23400;SDS011;11873;49.300;8.920;2023-07-24T22:19:57;2.80;;;1.97;;
23400;SDS011;11873;49.300;8.920;2023-07-24T22:24:58;3.37;;;1.90;;
23400;SDS011;11873;49.300;8.920;2023-07-24T22:29:58;1.80;;;1.60;;
23400;SDS011;11873;49.300;8.920;2023-07-24T22:34:58;1.60;;;1.50;;
23400;SDS011;11873;49.300;8.920;2023-07-24T22:39:58;1.80;;;1.70;;
23400;SDS011;11873;49.300;8.920;2023-07-24T22:44:58;1.90;;;1.53;;
23400;SDS011;11873;49.300;8.920;2023-07-24T22:49:59;1.60;;;1.50;;
23400;SDS011;11873;49.300;8.920;2023-07-24T22:54:59;2.33;;;1.63;;
23400;SDS011;11873;49.300;8.920;2023-07-24T22:59:59;2.67;;;1.50;;
23400;SDS011;11873;49.300;8.920;2023-07-24T23:04:59;4.53;;;1.70;;
23400;SDS011;11873;49.300;8.920;2023-07-24T23:09:59;1.90;;;1.70;;
23400;SDS011;11873;49.300;8.920;2023-07-24T23:14:59;2.50;;;1.70;;
23400;SDS011;11873;49.300;8.920;2023-07-24T23:20:00;2.50;;;1.70;;
23400;SDS011;11873;49.300;8.920;2023-07-24T23:25:00;2.03;;;1.83;;
23400;SDS011;11873;49.300;8.920;2023-07-24T23:30:00;7.50;;;2.10;;
23400;SDS011;11873;49.300;8.920;2023-07-24T23:35:01;2.90;;;1.50;;
23400;SDS011;11873;49.300;8.920;2023-07-24T23:40:01;1.80;;;1.70;;
23400;SDS011;11873;49.300;8.920;2023-07-24T23:45:01;2.80;;;1.67;;
23400;SDS011;11873;49.300;8.920;2023-07-24T23:50:01;5.50;;;2.07;;
23400;SDS011;11873;49.300;8.920;2023-07-24T23:55:01;3.20;;;1.70;;
